sensor_id;sensor_type;location;lat;lon;timestamp;P1;durP1;ratioP1;P2;durP2;ratioP2
5801;SDS011;2927;49.366;8.530;2023-10-08T00:01:34;8.63;;;4.33;;
5801;SDS011;2927;49.366;8.530;2023-10-08T00:04:00;11.53;;;3.80;;
5801;SDS011;2927;49.366;8.530;2023-10-08T00:06:29;9.50;;;4.10;;
5801;SDS011;2927;49.366;8.530;2023-10-08T00:08:55;20.07;;;5.57;;
5801;SDS011;2927;49.366;8.530;2023-10-08T00:11:25;12.20;;;4.97;;
5801;SDS011;2927;49.366;8.530;2023-10-08T00:13:51;9.47;;;4.03;;
5801;SDS011;2927;49.366;8.530;2023-10-08T00:16:21;8.93;;;3.80;;
5801;SDS011;2927;49.366;8.530;2023-10-08T00:18:46;4.40;;;3.07;;
5801;SDS011;2927;49.366;8.530;2023-10-08T00:21:16;8.13;;;3.00;;
5801;SDS011;2927;49.366;8.530;2023-10-08T00:23:45;6.13;;;2.23;;
5801;SDS011;2927;49.366;8.530;2023-10-08T00:26:18;4.53;;;2.60;;
5801;SDS011;2927;49.366;8.530;2023-10-08T00:28:52;6.90;;;2.80;;
5801;SDS011;2927;49.366;8.530;2023-10-08T00:31:21;3.60;;;1.90;;
5801;SDS011;2927;49.366;8.530;2023-10-08T00:33:51;4.17;;;2.33;;
5801;SDS011;2927;49.366;8.530;2023-10-08T00:36:17;5.70;;;3.37;;
5801;SDS011;2927;49.366;8.530;2023-10-08T00:38:45;7.40;;;2.50;;
5801;SDS011;2927;49.366;8.530;2023-10-08T00:41:16;5.10;;;3.10;;
5801;SDS011;2927;49.366;8.530;2023-10-08T00:43:53;4.43;;;2.20;;
5801;SDS011;2927;49.366;8.530;2023-10-08T00:46:21;7.83;;;3.57;;
5801;SDS011;2927;49.366;8.530;2023-10-08T00:48:58;12.63;;;5.00;;
5801;SDS011;2927;49.366;8.530;2023-10-08T00:51:49;7.47;;;3.00;;
5801;SDS011;2927;49.366;8.530;2023-10-08T00:54:34;9.03;;;4.47;;
5801;SDS011;2927;49.366;8.530;2023-10-08T00:57:17;11.03;;;5.23;;
5801;SDS011;2927;49.366;8.530;2023-10-08T00:59:46;9.07;;;4.60;;
5801;SDS011;2927;49.366;8.530;2023-10-08T01:02:19;8.00;;;2.80;;
5801;SDS011;2927;49.366;8.530;2023-10-08T01:04:49;6.40;;;2.80;;
5801;SDS011;2927;49.366;8.530;2023-10-08T01:07:16;5.07;;;2.80;;
5801;SDS011;2927;49.366;8.530;2023-10-08T01:09:43;7.57;;;2.87;;
5801;SDS011;2927;49.366;8.530;2023-10-08T01:12:14;8.53;;;2.97;;
5801;SDS011;2927;49.366;8.530;2023-10-08T01:14:43;6.50;;;2.87;;
5801;SDS011;2927;49.366;8.530;2023-10-08T01:17:12;6.80;;;2.93;;
5801;SDS011;2927;49.366;8.530;2023-10-08T01:19:44;9.03;;;2.30;;
5801;SDS011;2927;49.366;8.530;2023-10-08T01:22:15;4.97;;;2.47;;
5801;SDS011;2927;49.366;8.530;2023-10-08T01:24:46;6.87;;;2.70;;
5801;SDS011;2927;49.366;8.530;2023-10-08T01:27:13;8.33;;;2.70;;
5801;SDS011;2927;49.366;8.530;2023-10-08T01:29:46;5.03;;;2.70;;
5801;SDS011;2927;49.366;8.530;2023-10-08T01:32:12;6.00;;;3.10;;
5801;SDS011;2927;49.366;8.530;2023-10-08T01:34:41;4.23;;;2.60;;
5801;SDS011;2927;49.366;8.530;2023-10-08T01:37:10;5.83;;;2.53;;
5801;SDS011;2927;49.366;8.530;2023-10-08T01:39:42;6.33;;;3.00;;
5801;SDS011;2927;49.366;8.530;2023-10-08T01:42:08;5.70;;;3.47;;
5801;SDS011;2927;49.366;8.530;2023-10-08T01:44:53;4.73;;;2.67;;
5801;SDS011;2927;49.366;8.530;2023-10-08T01:47:21;5.37;;;2.80;;
5801;SDS011;2927;49.366;8.530;2023-10-08T01:49:50;12.93;;;3.73;;
5801;SDS011;2927;49.366;8.530;2023-10-08T01:52:22;14.53;;;6.13;;
5801;SDS011;2927;49.366;8.530;2023-10-08T01:54:48;6.40;;;3.80;;
5801;SDS011;2927;49.366;8.530;2023-10-08T01:57:15;8.20;;;3.80;;
5801;SDS011;2927;49.366;8.530;2023-10-08T01:59:42;7.77;;;3.73;;
5801;SDS011;2927;49.366;8.530;2023-10-08T02:02:09;10.73;;;2.50;;
5801;SDS011;2927;49.366;8.530;2023-10-08T02:04:35;8.20;;;2.80;;
5801;SDS011;2927;49.366;8.530;2023-10-08T02:07:04;9.93;;;3.80;;
5801;SDS011;2927;49.366;8.530;2023-10-08T02:09:37;6.30;;;3.77;;
5801;SDS011;2927;49.366;8.530;2023-10-08T02:12:03;9.17;;;4.13;;
5801;SDS011;2927;49.366;8.530;2023-10-08T02:14:29;9.20;;;4.23;;
5801;SDS011;2927;49.366;8.530;2023-10-08T02:16:57;4.97;;;3.10;;
5801;SDS011;2927;49.366;8.530;2023-10-08T02:19:28;8.10;;;3.70;;
5801;SDS011;2927;49.366;8.530;2023-10-08T02:21:57;8.33;;;3.70;;
5801;SDS011;2927;49.366;8.530;2023-10-08T02:24:23;6.90;;;4.03;;
5801;SDS011;2927;49.366;8.530;2023-10-08T02:26:55;6.20;;;3.07;;
5801;SDS011;2927;49.366;8.530;2023-10-08T02:29:24;9.50;;;3.40;;
5801;SDS011;2927;49.366;8.530;2023-10-08T02:31:54;11.10;;;3.70;;
5801;SDS011;2927;49.366;8.530;2023-10-08T02:34:20;8.33;;;3.73;;
5801;SDS011;2927;49.366;8.530;2023-10-08T02:36:46;6.00;;;3.97;;
5801;SDS011;2927;49.366;8.530;2023-10-08T02:39:12;6.23;;;3.30;;
5801;SDS011;2927;49.366;8.530;2023-10-08T02:41:50;8.90;;;3.07;;
5801;SDS011;2927;49.366;8.530;2023-10-08T02:44:16;4.20;;;2.43;;
5801;SDS011;2927;49.366;8.530;2023-10-08T02:46:42;9.30;;;2.90;;
5801;SDS011;2927;49.366;8.530;2023-10-08T02:49:12;3.27;;;2.30;;
5801;SDS011;2927;49.366;8.530;2023-10-08T02:51:51;5.83;;;3.43;;
5801;SDS011;2927;49.366;8.530;2023-10-08T02:54:18;11.60;;;4.33;;
5801;SDS011;2927;49.366;8.530;2023-10-08T02:56:57;4.87;;;2.73;;
5801;SDS011;2927;49.366;8.530;2023-10-08T02:59:30;7.43;;;3.20;;
5801;SDS011;2927;49.366;8.530;2023-10-08T03:02:09;3.77;;;2.13;;
5801;SDS011;2927;49.366;8.530;2023-10-08T03:04:46;4.93;;;2.73;;
5801;SDS011;2927;49.366;8.530;2023-10-08T03:07:16;3.73;;;2.53;;
5801;SDS011;2927;49.366;8.530;2023-10-08T03:09:57;5.80;;;2.30;;
5801;SDS011;2927;49.366;8.530;2023-10-08T03:12:29;6.00;;;2.60;;
5801;SDS011;2927;49.366;8.530;2023-10-08T03:14:58;6.50;;;2.93;;
5801;SDS011;2927;49.366;8.530;2023-10-08T03:17:37;10.53;;;3.20;;
5801;SDS011;2927;49.366;8.530;2023-10-08T03:20:13;15.70;;;6.53;;
5801;SDS011;2927;49.366;8.530;2023-10-08T03:23:00;11.10;;;4.53;;
5801;SDS011;2927;49.366;8.530;2023-10-08T03:25:30;8.43;;;3.90;;
5801;SDS011;2927;49.366;8.530;2023-10-08T03:27:55;8.03;;;3.73;;
5801;SDS011;2927;49.366;8.530;2023-10-08T03:30:24;4.97;;;2.60;;
5801;SDS011;2927;49.366;8.530;2023-10-08T03:32:51;6.30;;;3.30;;
5801;SDS011;2927;49.366;8.530;2023-10-08T03:35:20;5.60;;;3.30;;
5801;SDS011;2927;49.366;8.530;2023-10-08T03:37:53;7.00;;;3.03;;
5801;SDS011;2927;49.366;8.530;2023-10-08T03:40:19;6.77;;;3.53;;
5801;SDS011;2927;49.366;8.530;2023-10-08T03:42:47;9.73;;;4.17;;
5801;SDS011;2927;49.366;8.530;2023-10-08T03:45:14;8.27;;;3.90;;
5801;SDS011;2927;49.366;8.530;2023-10-08T03:47:47;8.07;;;3.30;;
5801;SDS011;2927;49.366;8.530;2023-10-08T03:50:28;8.13;;;2.87;;
5801;SDS011;2927;49.366;8.530;2023-10-08T03:53:14;7.00;;;3.20;;
5801;SDS011;2927;49.366;8.530;2023-10-08T03:55:41;6.43;;;3.93;;
5801;SDS011;2927;49.366;8.530;2023-10-08T03:58:10;6.77;;;3.60;;
5801;SDS011;2927;49.366;8.530;2023-10-08T04:00:53;10.30;;;5.03;;
5801;SDS011;2927;49.366;8.530;2023-10-08T04:03:33;7.60;;;4.20;;
5801;SDS011;2927;49.366;8.530;2023-10-08T04:06:17;12.17;;;4.33;;
5801;SDS011;2927;49.366;8.530;2023-10-08T04:08:57;8.30;;;4.70;;
5801;SDS011;2927;49.366;8.530;2023-10-08T04:11:38;5.40;;;3.00;;
5801;SDS011;2927;49.366;8.530;2023-10-08T04:14:27;7.20;;;3.03;;
5801;SDS011;2927;49.366;8.530;2023-10-08T04:16:53;9.43;;;4.47;;
5801;SDS011;2927;49.366;8.530;2023-10-08T04:19:19;9.43;;;3.80;;
5801;SDS011;2927;49.366;8.530;2023-10-08T04:21:47;6.87;;;4.47;;
5801;SDS011;2927;49.366;8.530;2023-10-08T04:24:19;6.70;;;3.80;;
5801;SDS011;2927;49.366;8.530;2023-10-08T04:26:45;11.87;;;4.20;;
5801;SDS011;2927;49.366;8.530;2023-10-08T04:29:11;4.60;;;3.40;;
5801;SDS011;2927;49.366;8.530;2023-10-08T04:31:41;8.83;;;3.50;;
5801;SDS011;2927;49.366;8.530;2023-10-08T04:34:11;9.77;;;3.70;;
5801;SDS011;2927;49.366;8.530;2023-10-08T04:36:47;5.80;;;3.60;;
5801;SDS011;2927;49.366;8.530;2023-10-08T04:39:22;6.33;;;3.50;;
5801;SDS011;2927;49.366;8.530;2023-10-08T04:41:57;8.37;;;4.30;;
5801;SDS011;2927;49.366;8.530;2023-10-08T04:44:35;6.20;;;3.00;;
5801;SDS011;2927;49.366;8.530;2023-10-08T04:47:04;8.17;;;3.63;;
5801;SDS011;2927;49.366;8.530;2023-10-08T04:49:30;7.77;;;3.60;;
5801;SDS011;2927;49.366;8.530;2023-10-08T04:51:58;4.53;;;2.57;;
5801;SDS011;2927;49.366;8.530;2023-10-08T04:54:39;8.47;;;3.73;;
5801;SDS011;2927;49.366;8.530;2023-10-08T04:57:06;6.40;;;3.73;;
5801;SDS011;2927;49.366;8.530;2023-10-08T04:59:40;9.00;;;3.33;;
5801;SDS011;2927;49.366;8.530;2023-10-08T05:02:06;7.50;;;3.67;;
5801;SDS011;2927;49.366;8.530;2023-10-08T05:04:51;7.70;;;3.17;;
5801;SDS011;2927;49.366;8.530;2023-10-08T05:07:16;9.00;;;3.87;;
5801;SDS011;2927;49.366;8.530;2023-10-08T05:09:46;8.43;;;3.43;;
5801;SDS011;2927;49.366;8.530;2023-10-08T05:12:31;10.97;;;4.50;;
5801;SDS011;2927;49.366;8.530;2023-10-08T05:15:06;4.67;;;3.40;;
5801;SDS011;2927;49.366;8.530;2023-10-08T05:17:38;9.30;;;3.83;;
5801;SDS011;2927;49.366;8.530;2023-10-08T05:20:19;9.60;;;4.33;;
5801;SDS011;2927;49.366;8.530;2023-10-08T05:23:09;17.63;;;10.27;;
5801;SDS011;2927;49.366;8.530;2023-10-08T05:26:06;8.90;;;6.20;;
5801;SDS011;2927;49.366;8.530;2023-10-08T05:28:38;21.23;;;14.60;;
5801;SDS011;2927;49.366;8.530;2023-10-08T05:31:23;13.97;;;9.43;;
5801;SDS011;2927;49.366;8.530;2023-10-08T05:34:06;10.00;;;5.53;;
5801;SDS011;2927;49.366;8.530;2023-10-08T05:36:51;8.33;;;4.43;;
5801;SDS011;2927;49.366;8.530;2023-10-08T05:39:25;6.77;;;4.10;;
5801;SDS011;2927;49.366;8.530;2023-10-08T05:42:19;7.10;;;3.90;;
5801;SDS011;2927;49.366;8.530;2023-10-08T05:44:45;7.30;;;4.33;;
5801;SDS011;2927;49.366;8.530;2023-10-08T05:47:30;11.60;;;5.23;;
5801;SDS011;2927;49.366;8.530;2023-10-08T05:49:59;8.40;;;5.30;;
5801;SDS011;2927;49.366;8.530;2023-10-08T05:52:46;10.00;;;5.40;;
5801;SDS011;2927;49.366;8.530;2023-10-08T05:55:29;8.67;;;4.40;;
5801;SDS011;2927;49.366;8.530;2023-10-08T05:58:02;11.13;;;3.90;;
5801;SDS011;2927;49.366;8.530;2023-10-08T06:00:42;8.83;;;3.70;;
5801;SDS011;2927;49.366;8.530;2023-10-08T06:03:26;10.03;;;4.50;;
5801;SDS011;2927;49.366;8.530;2023-10-08T06:06:11;8.27;;;3.30;;
5801;SDS011;2927;49.366;8.530;2023-10-08T06:08:39;22.30;;;10.30;;
5801;SDS011;2927;49.366;8.530;2023-10-08T06:11:33;18.23;;;7.70;;
5801;SDS011;2927;49.366;8.530;2023-10-08T06:14:09;15.43;;;7.67;;
5801;SDS011;2927;49.366;8.530;2023-10-08T06:16:45;23.33;;;7.67;;
5801;SDS011;2927;49.366;8.530;2023-10-08T06:19:12;14.77;;;7.17;;
5801;SDS011;2927;49.366;8.530;2023-10-08T06:21:38;16.40;;;8.07;;
5801;SDS011;2927;49.366;8.530;2023-10-08T06:24:06;11.67;;;6.23;;
5801;SDS011;2927;49.366;8.530;2023-10-08T06:26:36;13.43;;;6.17;;
5801;SDS011;2927;49.366;8.530;2023-10-08T06:29:07;9.20;;;5.93;;
5801;SDS011;2927;49.366;8.530;2023-10-08T06:31:52;12.80;;;4.97;;
5801;SDS011;2927;49.366;8.530;2023-10-08T06:34:20;6.33;;;3.97;;
5801;SDS011;2927;49.366;8.530;2023-10-08T06:36:48;7.60;;;4.57;;
5801;SDS011;2927;49.366;8.530;2023-10-08T06:39:18;6.17;;;4.00;;
5801;SDS011;2927;49.366;8.530;2023-10-08T06:41:53;7.77;;;4.13;;
5801;SDS011;2927;49.366;8.530;2023-10-08T06:44:21;8.03;;;4.60;;
5801;SDS011;2927;49.366;8.530;2023-10-08T06:46:47;8.13;;;3.93;;
5801;SDS011;2927;49.366;8.530;2023-10-08T06:49:13;7.90;;;3.83;;
5801;SDS011;2927;49.366;8.530;2023-10-08T06:51:43;8.17;;;4.20;;
5801;SDS011;2927;49.366;8.530;2023-10-08T06:54:09;9.17;;;4.13;;
5801;SDS011;2927;49.366;8.530;2023-10-08T06:56:42;6.90;;;3.33;;
5801;SDS011;2927;49.366;8.530;2023-10-08T06:59:12;5.07;;;3.90;;
5801;SDS011;2927;49.366;8.530;2023-10-08T07:01:38;5.03;;;3.23;;
5801;SDS011;2927;49.366;8.530;2023-10-08T07:04:04;6.73;;;3.47;;
5801;SDS011;2927;49.366;8.530;2023-10-08T07:06:37;7.80;;;3.30;;
5801;SDS011;2927;49.366;8.530;2023-10-08T07:09:12;5.73;;;3.33;;
5801;SDS011;2927;49.366;8.530;2023-10-08T07:11:48;7.97;;;3.27;;
5801;SDS011;2927;49.366;8.530;2023-10-08T07:14:19;8.00;;;4.23;;
5801;SDS011;2927;49.366;8.530;2023-10-08T07:16:51;8.40;;;3.53;;
5801;SDS011;2927;49.366;8.530;2023-10-08T07:19:19;9.03;;;3.63;;
5801;SDS011;2927;49.366;8.530;2023-10-08T07:21:48;8.70;;;3.97;;
5801;SDS011;2927;49.366;8.530;2023-10-08T07:24:19;6.73;;;3.67;;
5801;SDS011;2927;49.366;8.530;2023-10-08T07:26:46;5.70;;;3.53;;
5801;SDS011;2927;49.366;8.530;2023-10-08T07:29:13;7.67;;;3.50;;
5801;SDS011;2927;49.366;8.530;2023-10-08T07:31:43;6.63;;;3.57;;
5801;SDS011;2927;49.366;8.530;2023-10-08T07:34:19;8.67;;;4.43;;
5801;SDS011;2927;49.366;8.530;2023-10-08T07:36:51;7.60;;;3.83;;
5801;SDS011;2927;49.366;8.530;2023-10-08T07:39:20;8.87;;;3.63;;
5801;SDS011;2927;49.366;8.530;2023-10-08T07:42:02;5.40;;;3.40;;
5801;SDS011;2927;49.366;8.530;2023-10-08T07:44:33;5.40;;;3.43;;
5801;SDS011;2927;49.366;8.530;2023-10-08T07:47:04;8.60;;;3.63;;
5801;SDS011;2927;49.366;8.530;2023-10-08T07:49:35;8.70;;;3.60;;
5801;SDS011;2927;49.366;8.530;2023-10-08T07:52:01;12.50;;;4.23;;
5801;SDS011;2927;49.366;8.530;2023-10-08T07:54:29;5.03;;;3.40;;
5801;SDS011;2927;49.366;8.530;2023-10-08T07:56:59;4.30;;;3.20;;
5801;SDS011;2927;49.366;8.530;2023-10-08T07:59:56;5.83;;;3.70;;
5801;SDS011;2927;49.366;8.530;2023-10-08T08:02:42;6.83;;;3.20;;
5801;SDS011;2927;49.366;8.530;2023-10-08T08:05:07;10.03;;;4.10;;
5801;SDS011;2927;49.366;8.530;2023-10-08T08:07:34;6.57;;;3.40;;
5801;SDS011;2927;49.366;8.530;2023-10-08T08:10:00;7.10;;;3.40;;
5801;SDS011;2927;49.366;8.530;2023-10-08T08:12:28;6.00;;;3.43;;
5801;SDS011;2927;49.366;8.530;2023-10-08T08:14:57;6.47;;;3.70;;
5801;SDS011;2927;49.366;8.530;2023-10-08T08:17:23;6.10;;;3.20;;
5801;SDS011;2927;49.366;8.530;2023-10-08T08:19:51;8.20;;;4.40;;
5801;SDS011;2927;49.366;8.530;2023-10-08T08:22:20;5.77;;;3.10;;
5801;SDS011;2927;49.366;8.530;2023-10-08T08:24:50;5.50;;;3.70;;
5801;SDS011;2927;49.366;8.530;2023-10-08T08:27:43;7.10;;;4.03;;
5801;SDS011;2927;49.366;8.530;2023-10-08T08:30:11;7.20;;;3.73;;
5801;SDS011;2927;49.366;8.530;2023-10-08T08:32:40;7.97;;;2.97;;
5801;SDS011;2927;49.366;8.530;2023-10-08T08:35:09;6.37;;;3.73;;
5801;SDS011;2927;49.366;8.530;2023-10-08T08:37:36;6.00;;;3.00;;
5801;SDS011;2927;49.366;8.530;2023-10-08T08:40:03;6.67;;;3.10;;
5801;SDS011;2927;49.366;8.530;2023-10-08T08:42:48;8.47;;;3.43;;
5801;SDS011;2927;49.366;8.530;2023-10-08T08:45:21;5.50;;;3.60;;
5801;SDS011;2927;49.366;8.530;2023-10-08T08:47:49;8.77;;;3.43;;
5801;SDS011;2927;49.366;8.530;2023-10-08T08:50:16;6.80;;;3.53;;
5801;SDS011;2927;49.366;8.530;2023-10-08T08:52:42;7.60;;;3.73;;
5801;SDS011;2927;49.366;8.530;2023-10-08T08:55:10;5.37;;;3.10;;
5801;SDS011;2927;49.366;8.530;2023-10-08T08:57:43;3.87;;;3.00;;
5801;SDS011;2927;49.366;8.530;2023-10-08T09:00:12;6.20;;;3.40;;
5801;SDS011;2927;49.366;8.530;2023-10-08T09:02:39;6.20;;;3.60;;
5801;SDS011;2927;49.366;8.530;2023-10-08T09:05:05;6.23;;;3.13;;
5801;SDS011;2927;49.366;8.530;2023-10-08T09:07:57;6.67;;;3.70;;
5801;SDS011;2927;49.366;8.530;2023-10-08T09:10:23;5.00;;;3.20;;
5801;SDS011;2927;49.366;8.530;2023-10-08T09:12:53;3.30;;;2.50;;
5801;SDS011;2927;49.366;8.530;2023-10-08T09:15:19;5.50;;;2.97;;
5801;SDS011;2927;49.366;8.530;2023-10-08T09:17:47;11.20;;;3.77;;
5801;SDS011;2927;49.366;8.530;2023-10-08T09:20:14;5.37;;;3.20;;
5801;SDS011;2927;49.366;8.530;2023-10-08T09:22:39;6.33;;;3.40;;
5801;SDS011;2927;49.366;8.530;2023-10-08T09:25:06;5.40;;;2.97;;
5801;SDS011;2927;49.366;8.530;2023-10-08T09:27:32;6.97;;;3.30;;
5801;SDS011;2927;49.366;8.530;2023-10-08T09:29:58;8.53;;;4.03;;
5801;SDS011;2927;49.366;8.530;2023-10-08T09:32:33;8.03;;;3.07;;
5801;SDS011;2927;49.366;8.530;2023-10-08T09:35:00;8.50;;;3.00;;
5801;SDS011;2927;49.366;8.530;2023-10-08T09:37:26;8.20;;;3.87;;
5801;SDS011;2927;49.366;8.530;2023-10-08T09:39:52;6.17;;;3.13;;
5801;SDS011;2927;49.366;8.530;2023-10-08T09:42:21;6.10;;;3.17;;
5801;SDS011;2927;49.366;8.530;2023-10-08T09:44:49;4.97;;;3.20;;
5801;SDS011;2927;49.366;8.530;2023-10-08T09:47:17;8.80;;;4.60;;
5801;SDS011;2927;49.366;8.530;2023-10-08T09:49:56;6.33;;;2.87;;
5801;SDS011;2927;49.366;8.530;2023-10-08T09:52:29;6.70;;;3.60;;
5801;SDS011;2927;49.366;8.530;2023-10-08T09:55:03;4.30;;;3.00;;
5801;SDS011;2927;49.366;8.530;2023-10-08T09:57:37;12.07;;;3.10;;
5801;SDS011;2927;49.366;8.530;2023-10-08T10:00:06;2.87;;;2.60;;
5801;SDS011;2927;49.366;8.530;2023-10-08T10:02:40;8.63;;;3.80;;
5801;SDS011;2927;49.366;8.530;2023-10-08T10:05:10;4.10;;;2.87;;
5801;SDS011;2927;49.366;8.530;2023-10-08T10:07:36;8.13;;;3.40;;
5801;SDS011;2927;49.366;8.530;2023-10-08T10:10:07;6.80;;;3.20;;
5801;SDS011;2927;49.366;8.530;2023-10-08T10:12:51;17.67;;;2.53;;
5801;SDS011;2927;49.366;8.530;2023-10-08T10:15:19;3.53;;;2.73;;
5801;SDS011;2927;49.366;8.530;2023-10-08T10:17:46;6.83;;;3.83;;
5801;SDS011;2927;49.366;8.530;2023-10-08T10:20:14;5.80;;;3.80;;
5801;SDS011;2927;49.366;8.530;2023-10-08T10:22:41;6.50;;;3.40;;
5801;SDS011;2927;49.366;8.530;2023-10-08T10:25:08;5.20;;;2.80;;
5801;SDS011;2927;49.366;8.530;2023-10-08T10:30:20;4.50;;;3.10;;
5801;SDS011;2927;49.366;8.530;2023-10-08T10:32:48;6.43;;;3.17;;
5801;SDS011;2927;49.366;8.530;2023-10-08T10:35:17;5.67;;;3.03;;
5801;SDS011;2927;49.366;8.530;2023-10-08T10:37:45;4.83;;;3.33;;
5801;SDS011;2927;49.366;8.530;2023-10-08T10:40:21;10.77;;;3.30;;
5801;SDS011;2927;49.366;8.530;2023-10-08T10:42:56;11.47;;;3.90;;
5801;SDS011;2927;49.366;8.530;2023-10-08T10:45:23;5.30;;;3.03;;
5801;SDS011;2927;49.366;8.530;2023-10-08T10:48:02;7.10;;;3.40;;
5801;SDS011;2927;49.366;8.530;2023-10-08T10:50:39;4.20;;;2.73;;
5801;SDS011;2927;49.366;8.530;2023-10-08T10:53:25;4.87;;;3.00;;
5801;SDS011;2927;49.366;8.530;2023-10-08T10:55:52;7.50;;;3.37;;
5801;SDS011;2927;49.366;8.530;2023-10-08T10:58:34;4.73;;;2.47;;
5801;SDS011;2927;49.366;8.530;2023-10-08T11:01:06;11.13;;;3.73;;
5801;SDS011;2927;49.366;8.530;2023-10-08T11:03:51;6.90;;;3.13;;
5801;SDS011;2927;49.366;8.530;2023-10-08T11:06:17;9.33;;;2.63;;
5801;SDS011;2927;49.366;8.530;2023-10-08T11:08:51;8.53;;;3.20;;
5801;SDS011;2927;49.366;8.530;2023-10-08T11:11:18;4.73;;;3.10;;
5801;SDS011;2927;49.366;8.530;2023-10-08T11:13:44;7.50;;;2.87;;
5801;SDS011;2927;49.366;8.530;2023-10-08T11:16:19;7.00;;;2.80;;
5801;SDS011;2927;49.366;8.530;2023-10-08T11:18:48;13.77;;;3.43;;
5801;SDS011;2927;49.366;8.530;2023-10-08T11:21:16;5.80;;;2.80;;
5801;SDS011;2927;49.366;8.530;2023-10-08T11:23:47;7.07;;;3.30;;
5801;SDS011;2927;49.366;8.530;2023-10-08T11:26:36;7.70;;;2.83;;
5801;SDS011;2927;49.366;8.530;2023-10-08T11:29:05;4.63;;;2.70;;
5801;SDS011;2927;49.366;8.530;2023-10-08T11:31:39;6.40;;;3.30;;
5801;SDS011;2927;49.366;8.530;2023-10-08T11:34:05;5.77;;;3.30;;
5801;SDS011;2927;49.366;8.530;2023-10-08T11:36:35;7.30;;;3.00;;
5801;SDS011;2927;49.366;8.530;2023-10-08T11:39:13;5.10;;;2.73;;
5801;SDS011;2927;49.366;8.530;2023-10-08T11:42:02;6.53;;;3.03;;
5801;SDS011;2927;49.366;8.530;2023-10-08T11:44:29;5.70;;;3.43;;
5801;SDS011;2927;49.366;8.530;2023-10-08T11:46:55;5.30;;;2.93;;
5801;SDS011;2927;49.366;8.530;2023-10-08T11:49:29;6.97;;;3.07;;
5801;SDS011;2927;49.366;8.530;2023-10-08T11:52:00;4.80;;;2.70;;
5801;SDS011;2927;49.366;8.530;2023-10-08T11:54:26;6.60;;;2.73;;
5801;SDS011;2927;49.366;8.530;2023-10-08T11:56:52;5.67;;;2.80;;
5801;SDS011;2927;49.366;8.530;2023-10-08T11:59:18;11.43;;;3.00;;
5801;SDS011;2927;49.366;8.530;2023-10-08T12:01:43;3.13;;;2.37;;
5801;SDS011;2927;49.366;8.530;2023-10-08T12:04:11;5.23;;;2.90;;
5801;SDS011;2927;49.366;8.530;2023-10-08T12:06:41;5.20;;;2.70;;
5801;SDS011;2927;49.366;8.530;2023-10-08T12:09:17;5.00;;;3.00;;
5801;SDS011;2927;49.366;8.530;2023-10-08T12:11:47;5.50;;;3.23;;
5801;SDS011;2927;49.366;8.530;2023-10-08T12:14:13;5.53;;;3.50;;
5801;SDS011;2927;49.366;8.530;2023-10-08T12:16:40;9.03;;;2.90;;
5801;SDS011;2927;49.366;8.530;2023-10-08T12:19:06;3.57;;;2.50;;
5801;SDS011;2927;49.366;8.530;2023-10-08T12:21:41;5.23;;;2.93;;
5801;SDS011;2927;49.366;8.530;2023-10-08T12:24:11;5.57;;;3.07;;
5801;SDS011;2927;49.366;8.530;2023-10-08T12:26:37;11.60;;;3.43;;
5801;SDS011;2927;49.366;8.530;2023-10-08T12:29:07;11.87;;;3.87;;
5801;SDS011;2927;49.366;8.530;2023-10-08T12:31:33;4.77;;;3.20;;
5801;SDS011;2927;49.366;8.530;2023-10-08T12:33:59;4.53;;;2.80;;
5801;SDS011;2927;49.366;8.530;2023-10-08T12:36:25;5.07;;;2.90;;
5801;SDS011;2927;49.366;8.530;2023-10-08T12:38:57;6.50;;;3.40;;
5801;SDS011;2927;49.366;8.530;2023-10-08T12:41:26;6.13;;;2.50;;
5801;SDS011;2927;49.366;8.530;2023-10-08T12:43:52;6.27;;;3.30;;
5801;SDS011;2927;49.366;8.530;2023-10-08T12:46:18;6.40;;;3.70;;
5801;SDS011;2927;49.366;8.530;2023-10-08T12:48:49;8.27;;;3.33;;
5801;SDS011;2927;49.366;8.530;2023-10-08T12:51:19;7.83;;;3.23;;
5801;SDS011;2927;49.366;8.530;2023-10-08T12:53:49;11.27;;;3.33;;
5801;SDS011;2927;49.366;8.530;2023-10-08T12:56:24;6.73;;;2.77;;
5801;SDS011;2927;49.366;8.530;2023-10-08T12:58:57;9.60;;;3.77;;
5801;SDS011;2927;49.366;8.530;2023-10-08T13:01:24;11.73;;;3.40;;
5801;SDS011;2927;49.366;8.530;2023-10-08T13:03:54;8.80;;;2.87;;
5801;SDS011;2927;49.366;8.530;2023-10-08T13:06:24;10.80;;;3.53;;
5801;SDS011;2927;49.366;8.530;2023-10-08T13:08:53;5.73;;;3.20;;
5801;SDS011;2927;49.366;8.530;2023-10-08T13:11:23;5.00;;;2.80;;
5801;SDS011;2927;49.366;8.530;2023-10-08T13:13:54;5.17;;;3.50;;
5801;SDS011;2927;49.366;8.530;2023-10-08T13:16:24;5.80;;;3.27;;
5801;SDS011;2927;49.366;8.530;2023-10-08T13:18:55;6.47;;;3.03;;
5801;SDS011;2927;49.366;8.530;2023-10-08T13:21:23;9.37;;;3.53;;
5801;SDS011;2927;49.366;8.530;2023-10-08T13:23:50;8.17;;;3.93;;
5801;SDS011;2927;49.366;8.530;2023-10-08T13:26:16;12.93;;;3.87;;
5801;SDS011;2927;49.366;8.530;2023-10-08T13:28:42;6.53;;;2.77;;
5801;SDS011;2927;49.366;8.530;2023-10-08T13:31:08;6.00;;;3.40;;
5801;SDS011;2927;49.366;8.530;2023-10-08T13:33:37;5.50;;;2.77;;
5801;SDS011;2927;49.366;8.530;2023-10-08T13:36:13;5.67;;;3.20;;
5801;SDS011;2927;49.366;8.530;2023-10-08T13:38:40;8.67;;;3.20;;
5801;SDS011;2927;49.366;8.530;2023-10-08T13:41:06;8.90;;;3.13;;
5801;SDS011;2927;49.366;8.530;2023-10-08T13:43:43;8.70;;;4.07;;
5801;SDS011;2927;49.366;8.530;2023-10-08T13:46:16;10.73;;;3.50;;
5801;SDS011;2927;49.366;8.530;2023-10-08T13:48:43;11.70;;;3.10;;
5801;SDS011;2927;49.366;8.530;2023-10-08T13:51:20;8.00;;;3.00;;
5801;SDS011;2927;49.366;8.530;2023-10-08T13:53:59;5.00;;;2.53;;
5801;SDS011;2927;49.366;8.530;2023-10-08T13:56:25;6.20;;;3.50;;
5801;SDS011;2927;49.366;8.530;2023-10-08T13:58:52;3.80;;;2.83;;
5801;SDS011;2927;49.366;8.530;2023-10-08T14:01:28;5.33;;;3.23;;
5801;SDS011;2927;49.366;8.530;2023-10-08T14:04:00;4.90;;;2.43;;
5801;SDS011;2927;49.366;8.530;2023-10-08T14:06:33;7.07;;;3.13;;
5801;SDS011;2927;49.366;8.530;2023-10-08T14:09:00;6.50;;;3.70;;
5801;SDS011;2927;49.366;8.530;2023-10-08T14:11:26;6.20;;;3.17;;
5801;SDS011;2927;49.366;8.530;2023-10-08T14:13:58;7.90;;;3.43;;
5801;SDS011;2927;49.366;8.530;2023-10-08T14:16:27;8.60;;;3.33;;
5801;SDS011;2927;49.366;8.530;2023-10-08T14:18:54;6.27;;;3.07;;
5801;SDS011;2927;49.366;8.530;2023-10-08T14:21:21;5.73;;;3.50;;
5801;SDS011;2927;49.366;8.530;2023-10-08T14:23:55;6.00;;;3.10;;
5801;SDS011;2927;49.366;8.530;2023-10-08T14:26:27;7.70;;;3.13;;
5801;SDS011;2927;49.366;8.530;2023-10-08T14:29:00;7.53;;;3.63;;
5801;SDS011;2927;49.366;8.530;2023-10-08T14:31:32;6.17;;;2.97;;
5801;SDS011;2927;49.366;8.530;2023-10-08T14:34:03;9.30;;;3.70;;
5801;SDS011;2927;49.366;8.530;2023-10-08T14:36:41;9.23;;;3.40;;
5801;SDS011;2927;49.366;8.530;2023-10-08T14:39:26;5.63;;;3.03;;
5801;SDS011;2927;49.366;8.530;2023-10-08T14:42:11;15.60;;;4.27;;
5801;SDS011;2927;49.366;8.530;2023-10-08T14:44:55;17.20;;;7.33;;
5801;SDS011;2927;49.366;8.530;2023-10-08T14:47:21;5.50;;;2.90;;
5801;SDS011;2927;49.366;8.530;2023-10-08T14:49:47;6.10;;;3.27;;
5801;SDS011;2927;49.366;8.530;2023-10-08T14:52:12;6.27;;;3.07;;
5801;SDS011;2927;49.366;8.530;2023-10-08T14:54:38;12.80;;;3.27;;
5801;SDS011;2927;49.366;8.530;2023-10-08T14:57:04;4.77;;;2.53;;
5801;SDS011;2927;49.366;8.530;2023-10-08T14:59:31;9.10;;;3.70;;
5801;SDS011;2927;49.366;8.530;2023-10-08T15:01:57;9.97;;;3.50;;
5801;SDS011;2927;49.366;8.530;2023-10-08T15:04:24;7.13;;;2.73;;
5801;SDS011;2927;49.366;8.530;2023-10-08T15:06:51;11.93;;;2.97;;
5801;SDS011;2927;49.366;8.530;2023-10-08T15:09:17;10.10;;;3.63;;
5801;SDS011;2927;49.366;8.530;2023-10-08T15:11:49;6.83;;;3.50;;
5801;SDS011;2927;49.366;8.530;2023-10-08T15:14:17;9.47;;;3.87;;
5801;SDS011;2927;49.366;8.530;2023-10-08T15:16:44;8.77;;;3.20;;
5801;SDS011;2927;49.366;8.530;2023-10-08T15:19:11;4.23;;;2.70;;
5801;SDS011;2927;49.366;8.530;2023-10-08T15:21:40;5.17;;;3.13;;
5801;SDS011;2927;49.366;8.530;2023-10-08T15:24:06;6.67;;;3.33;;
5801;SDS011;2927;49.366;8.530;2023-10-08T15:26:36;6.33;;;3.13;;
5801;SDS011;2927;49.366;8.530;2023-10-08T15:29:04;7.00;;;3.70;;
5801;SDS011;2927;49.366;8.530;2023-10-08T15:31:30;6.63;;;2.73;;
5801;SDS011;2927;49.366;8.530;2023-10-08T15:33:55;7.20;;;3.23;;
5801;SDS011;2927;49.366;8.530;2023-10-08T15:36:22;7.93;;;3.60;;
5801;SDS011;2927;49.366;8.530;2023-10-08T15:38:47;6.93;;;3.97;;
5801;SDS011;2927;49.366;8.530;2023-10-08T15:41:13;10.60;;;3.57;;